createdAt,value
2019-06-26T00:02:22.815Z,27.60
2019-06-26T00:04:52.071Z,27.60
2019-06-26T00:07:21.199Z,27.50
2019-06-26T00:09:50.095Z,27.60
2019-06-26T00:12:19.555Z,27.50
2019-06-26T00:14:48.487Z,27.40
2019-06-26T00:17:17.407Z,27.50
2019-06-26T00:19:46.427Z,27.40
2019-06-26T00:22:15.811Z,27.40
2019-06-26T00:24:44.658Z,27.30
2019-06-26T00:27:13.474Z,27.20
2019-06-26T00:29:42.435Z,27.20
2019-06-26T00:32:11.338Z,27.20
2019-06-26T00:34:40.272Z,27.20
2019-06-26T00:37:09.222Z,27.30
2019-06-26T00:39:38.235Z,27.30
2019-06-26T00:42:07.209Z,27.20
2019-06-26T00:44:36.318Z,27.20
2019-06-26T00:47:05.420Z,27.10
2019-06-26T00:49:34.490Z,27.10
2019-06-26T00:52:03.542Z,27.10
2019-06-26T00:54:32.848Z,27.00
2019-06-26T00:57:01.922Z,27.00
2019-06-26T00:59:30.839Z,26.90
2019-06-26T01:01:59.738Z,26.90
2019-06-26T01:04:32.486Z,26.90
2019-06-26T01:07:01.389Z,26.90
2019-06-26T01:09:30.574Z,26.80
2019-06-26T01:11:59.507Z,26.90
2019-06-26T01:14:28.432Z,26.80
2019-06-26T01:16:57.391Z,26.80
2019-06-26T01:19:27.077Z,26.70
2019-06-26T01:21:56.008Z,26.70
2019-06-26T01:24:24.990Z,26.70
2019-06-26T01:26:53.983Z,26.70
2019-06-26T01:29:23.147Z,26.60
2019-06-26T01:31:52.292Z,26.70
2019-06-26T01:34:21.131Z,26.60
2019-06-26T01:36:50.076Z,26.50
2019-06-26T01:39:19.132Z,26.40
2019-06-26T01:41:48.118Z,26.40
2019-06-26T01:44:17.071Z,26.40
2019-06-26T01:46:45.974Z,26.30
2019-06-26T01:49:14.907Z,26.30
2019-06-26T01:51:43.805Z,26.40
2019-06-26T01:54:12.740Z,26.30
2019-06-26T01:56:41.711Z,26.20
2019-06-26T01:59:10.670Z,26.30
2019-06-26T02:01:39.520Z,26.20
2019-06-26T02:04:08.470Z,26.10
2019-06-26T02:06:37.771Z,26.20
2019-06-26T02:09:07.088Z,26.00
2019-06-26T02:11:35.889Z,26.00
2019-06-26T02:14:05.242Z,26.10
2019-06-26T02:16:34.336Z,26.10
2019-06-26T02:19:04.757Z,26.10
2019-06-26T02:21:33.698Z,26.10
2019-06-26T02:24:02.585Z,26.00
2019-06-26T02:26:31.506Z,25.90
2019-06-26T02:29:00.859Z,25.90
2019-06-26T02:31:29.767Z,25.90
2019-06-26T02:33:58.606Z,25.90
2019-06-26T02:36:27.560Z,25.90
2019-06-26T02:38:56.429Z,25.90
2019-06-26T02:41:25.539Z,25.80
2019-06-26T02:43:54.454Z,25.80
2019-06-26T02:46:23.468Z,25.80
2019-06-26T02:48:52.515Z,25.80
2019-06-26T02:51:21.506Z,25.80
2019-06-26T02:53:50.435Z,25.60
2019-06-26T02:56:19.478Z,25.60
2019-06-26T02:58:48.384Z,25.60
2019-06-26T03:01:17.327Z,25.60
2019-06-26T03:03:46.312Z,25.50
2019-06-26T03:06:15.179Z,25.50
2019-06-26T03:08:44.255Z,25.40
2019-06-26T03:11:13.123Z,25.40
2019-06-26T03:13:41.995Z,25.30
2019-06-26T03:16:11.041Z,25.30
2019-06-26T03:18:39.882Z,25.30
2019-06-26T03:21:08.920Z,25.30
2019-06-26T03:23:37.811Z,25.40
2019-06-26T03:26:06.694Z,25.40
2019-06-26T03:28:35.686Z,25.30
2019-06-26T03:31:04.814Z,25.30
2019-06-26T03:33:33.701Z,25.30
2019-06-26T03:36:02.648Z,25.30
2019-06-26T03:38:31.503Z,25.30
2019-06-26T03:41:00.550Z,25.20
2019-06-26T03:43:29.377Z,25.20
2019-06-26T03:45:58.393Z,25.20
2019-06-26T03:48:27.703Z,25.20
2019-06-26T03:50:56.622Z,25.30
2019-06-26T03:53:25.444Z,25.30
2019-06-26T03:55:54.398Z,25.40
2019-06-26T03:58:23.261Z,25.40
2019-06-26T04:00:52.061Z,25.40
2019-06-26T04:03:21.010Z,25.40
2019-06-26T04:05:49.996Z,25.50
2019-06-26T04:08:19.179Z,25.50
2019-06-26T04:10:48.163Z,25.50
2019-06-26T04:13:17.122Z,25.50
2019-06-26T04:15:46.140Z,25.50
2019-06-26T04:18:15.041Z,25.50
2019-06-26T04:20:43.989Z,25.50
2019-06-26T04:23:13.010Z,25.50
2019-06-26T04:25:42.266Z,25.60
2019-06-26T04:28:11.101Z,25.60
2019-06-26T04:30:40.034Z,25.70
2019-06-26T04:33:09.084Z,25.90
2019-06-26T04:35:37.976Z,26.00
2019-06-26T04:38:06.901Z,26.00
2019-06-26T04:40:35.843Z,26.00
2019-06-26T04:43:05.188Z,26.00
2019-06-26T04:45:34.114Z,25.90
2019-06-26T04:48:06.908Z,25.80
2019-06-26T04:50:33.958Z,25.60
2019-06-26T04:53:02.855Z,25.40
2019-06-26T04:55:31.665Z,25.60
2019-06-26T04:58:00.645Z,25.70
2019-06-26T05:00:29.618Z,25.60
2019-06-26T05:02:58.623Z,25.60
2019-06-26T05:05:39.082Z,25.80
2019-06-26T05:07:58.529Z,25.70
2019-06-26T05:10:27.406Z,25.80
2019-06-26T05:12:56.681Z,25.80
2019-06-26T05:15:25.646Z,25.90
2019-06-26T05:17:54.534Z,25.80
2019-06-26T05:20:23.685Z,25.80
2019-06-26T05:22:52.575Z,25.80
2019-06-26T05:25:21.877Z,25.90
2019-06-26T05:27:50.823Z,25.90
2019-06-26T05:30:21.321Z,26.00
2019-06-26T05:32:50.387Z,26.00
2019-06-26T05:35:19.500Z,26.10
2019-06-26T05:37:48.531Z,26.20
2019-06-26T05:40:17.809Z,26.20
2019-06-26T05:42:46.826Z,26.30
2019-06-26T05:45:16.055Z,26.40
2019-06-26T05:47:45.156Z,26.40
2019-06-26T05:50:14.780Z,26.40
2019-06-26T05:52:43.701Z,26.50
2019-06-26T05:55:13.352Z,26.60
2019-06-26T05:57:42.418Z,26.70
2019-06-26T06:00:12.237Z,26.80
2019-06-26T06:02:41.061Z,26.90
2019-06-26T06:05:10.585Z,26.90
2019-06-26T06:07:39.512Z,27.00
2019-06-26T06:10:09.317Z,27.00
2019-06-26T06:12:38.250Z,26.90
2019-06-26T06:15:07.962Z,27.00
2019-06-26T06:17:36.884Z,27.20
2019-06-26T06:20:06.657Z,27.20
2019-06-26T06:22:35.639Z,27.20
2019-06-26T06:25:05.558Z,27.30
2019-06-26T06:27:34.516Z,27.30
2019-06-26T06:30:03.871Z,27.50
2019-06-26T06:32:32.850Z,27.70
2019-06-26T06:35:01.734Z,27.70
2019-06-26T06:37:30.736Z,27.90
2019-06-26T06:39:59.589Z,28.20
2019-06-26T06:42:28.452Z,28.50
2019-06-26T06:44:57.371Z,28.70
2019-06-26T06:47:26.362Z,28.90
2019-06-26T06:49:55.243Z,29.10
2019-06-26T06:52:24.141Z,29.40
2019-06-26T06:54:53.510Z,29.90
2019-06-26T06:57:22.509Z,30.30
2019-06-26T06:59:51.393Z,30.40
2019-06-26T07:02:20.469Z,30.50
2019-06-26T07:04:49.405Z,30.60
2019-06-26T07:07:18.270Z,31.00
2019-06-26T07:09:47.466Z,31.70
2019-06-26T07:12:16.417Z,32.20
2019-06-26T07:14:45.389Z,33.00
2019-06-26T07:17:20.571Z,33.50
2019-06-26T07:19:45.150Z,33.20
2019-06-26T07:22:14.215Z,33.00
2019-06-26T07:24:43.096Z,32.70
2019-06-26T07:27:12.325Z,33.30
2019-06-26T07:29:41.402Z,33.10
2019-06-26T07:32:10.428Z,34.10
2019-06-26T07:34:39.382Z,34.60
2019-06-26T07:37:08.433Z,35.20
2019-06-26T07:39:37.292Z,35.10
2019-06-26T07:42:06.641Z,35.00
2019-06-26T07:44:35.581Z,34.60
2019-06-26T07:47:12.757Z,34.70
2019-06-26T07:49:35.380Z,35.10
2019-06-26T07:52:04.361Z,35.30
2019-06-26T07:54:33.547Z,35.30
2019-06-26T07:57:02.595Z,36.20
2019-06-26T07:59:32.118Z,36.80
2019-06-26T08:02:00.966Z,36.50
2019-06-26T08:04:29.849Z,36.10
2019-06-26T08:06:59.095Z,35.80
2019-06-26T08:09:47.374Z,36.50
2019-06-26T08:12:16.328Z,36.90
2019-06-26T08:14:45.217Z,36.20
2019-06-26T08:17:14.185Z,36.00
2019-06-26T08:19:43.042Z,36.50
2019-06-26T08:22:11.950Z,37.60
2019-06-26T08:24:40.885Z,36.90
2019-06-26T08:27:12.838Z,37.50
2019-06-26T08:29:40.525Z,38.20
2019-06-26T08:32:09.438Z,38.20
2019-06-26T08:34:38.277Z,38.30
2019-06-26T08:37:07.160Z,38.30
2019-06-26T08:39:36.100Z,38.90
2019-06-26T08:42:05.049Z,38.20
2019-06-26T08:44:34.019Z,38.60
2019-06-26T08:47:02.913Z,38.70
2019-06-26T08:49:32.187Z,39.60
2019-06-26T08:52:01.266Z,40.60
2019-06-26T08:54:30.113Z,40.10
2019-06-26T08:56:58.984Z,39.70
2019-06-26T08:59:28.012Z,40.50
2019-06-26T09:01:57.015Z,40.70
2019-06-26T09:04:25.865Z,41.10
2019-06-26T09:06:54.793Z,41.60
2019-06-26T09:09:23.734Z,41.20
2019-06-26T09:11:52.676Z,40.80
2019-06-26T09:14:21.582Z,41.00
2019-06-26T09:16:50.526Z,41.50
2019-06-26T09:19:19.469Z,42.40
2019-06-26T09:21:48.567Z,42.30
2019-06-26T09:24:17.564Z,41.50
2019-06-26T09:26:46.609Z,40.50
2019-06-26T09:29:15.753Z,40.80
2019-06-26T09:31:44.597Z,41.20
2019-06-26T09:34:13.537Z,42.30
2019-06-26T09:36:42.461Z,43.30
2019-06-26T09:39:11.411Z,42.40
2019-06-26T09:41:40.406Z,42.50
2019-06-26T09:44:09.451Z,43.20
2019-06-26T09:46:38.387Z,43.40
2019-06-26T09:49:07.221Z,43.90
2019-06-26T09:51:36.284Z,43.60
2019-06-26T09:54:05.294Z,43.60
2019-06-26T09:56:34.418Z,44.40
2019-06-26T09:59:03.339Z,43.80
2019-06-26T10:01:32.307Z,43.90
2019-06-26T10:04:01.233Z,44.50
2019-06-26T10:06:30.197Z,44.30
2019-06-26T10:08:59.228Z,45.00
2019-06-26T10:11:28.050Z,44.70
2019-06-26T10:13:56.845Z,43.20
2019-06-26T10:16:25.812Z,43.80
2019-06-26T10:19:08.997Z,44.90
2019-06-26T10:21:25.392Z,45.40
2019-06-26T10:23:54.323Z,44.80
2019-06-26T10:26:23.362Z,45.30
2019-06-26T10:28:52.535Z,45.80
2019-06-26T10:31:21.552Z,45.40
2019-06-26T10:33:50.602Z,45.80
2019-06-26T10:36:19.726Z,45.20
2019-06-26T10:38:48.874Z,44.80
2019-06-26T10:41:17.799Z,44.80
2019-06-26T10:43:46.635Z,44.00
2019-06-26T10:46:15.541Z,43.90
2019-06-26T10:48:44.573Z,44.60
2019-06-26T10:51:13.440Z,45.40
2019-06-26T10:53:42.591Z,45.30
2019-06-26T10:56:11.676Z,46.00
2019-06-26T10:58:40.570Z,46.30
2019-06-26T11:01:10.018Z,44.60
2019-06-26T11:03:39.129Z,44.90
2019-06-26T11:06:08.045Z,45.50
2019-06-26T11:08:36.901Z,45.80
2019-06-26T11:11:05.822Z,46.70
2019-06-26T11:13:34.782Z,46.40
2019-06-26T11:16:03.723Z,46.00
2019-06-26T11:18:32.689Z,44.80
2019-06-26T11:21:01.633Z,44.70
2019-06-26T11:23:30.569Z,44.40
2019-06-26T11:25:59.425Z,44.60
2019-06-26T11:28:28.360Z,44.40
2019-06-26T11:30:57.289Z,46.20
2019-06-26T11:33:26.192Z,45.20
2019-06-26T11:35:55.046Z,45.20
2019-06-26T11:38:24.066Z,46.40
2019-06-26T11:40:52.987Z,47.00
2019-06-26T11:43:21.886Z,46.80
2019-06-26T11:45:50.691Z,46.50
2019-06-26T11:48:19.642Z,47.30
2019-06-26T11:50:48.437Z,48.00
2019-06-26T11:53:17.373Z,47.80
2019-06-26T11:55:46.623Z,46.70
2019-06-26T11:58:15.531Z,46.10
2019-06-26T12:00:44.546Z,47.50
2019-06-26T12:03:13.583Z,46.20
2019-06-26T12:05:42.444Z,45.10
2019-06-26T12:08:11.503Z,44.10
2019-06-26T12:10:40.537Z,45.00
2019-06-26T12:13:09.448Z,45.00
2019-06-26T12:15:38.674Z,45.00
2019-06-26T12:18:07.573Z,45.20
2019-06-26T12:20:36.394Z,44.10
2019-06-26T12:23:05.338Z,45.20
2019-06-26T12:25:34.277Z,45.80
2019-06-26T12:28:03.178Z,46.20
2019-06-26T12:30:32.214Z,45.90
2019-06-26T12:33:03.444Z,45.50
2019-06-26T12:35:32.075Z,45.10
2019-06-26T12:38:00.998Z,44.70
2019-06-26T12:40:31.471Z,45.00
2019-06-26T12:43:00.587Z,45.60
2019-06-26T12:45:29.563Z,45.70
2019-06-26T12:47:58.521Z,45.40
2019-06-26T12:50:35.577Z,45.00
2019-06-26T12:52:58.140Z,45.90
2019-06-26T12:55:27.137Z,44.70
2019-06-26T12:58:11.874Z,43.70
2019-06-26T13:00:27.557Z,42.40
2019-06-26T13:02:56.557Z,41.30
2019-06-26T13:05:25.637Z,40.80
2019-06-26T13:07:54.424Z,39.80
2019-06-26T13:10:23.854Z,38.90
2019-06-26T13:12:53.107Z,38.50
2019-06-26T13:15:22.191Z,38.60
2019-06-26T13:17:51.245Z,37.90
2019-06-26T13:20:20.329Z,37.90
2019-06-26T13:22:49.324Z,37.30
2019-06-26T13:25:18.298Z,37.30
2019-06-26T13:27:47.241Z,37.60
2019-06-26T13:30:19.948Z,36.80
2019-06-26T13:32:48.783Z,36.80
2019-06-26T13:35:17.836Z,37.10
2019-06-26T13:37:46.758Z,37.30
2019-06-26T13:40:16.437Z,37.30
2019-06-26T13:42:45.329Z,37.00
2019-06-26T13:45:14.476Z,36.80
2019-06-26T13:47:43.496Z,37.00
2019-06-26T13:50:12.928Z,37.10
2019-06-26T13:52:41.884Z,37.50
2019-06-26T13:55:10.921Z,37.60
2019-06-26T13:57:39.878Z,37.10
2019-06-26T14:00:09.412Z,36.60
2019-06-26T14:02:38.362Z,36.60
2019-06-26T14:05:07.399Z,36.50
2019-06-26T14:07:36.380Z,36.60
2019-06-26T14:10:06.495Z,36.60
2019-06-26T14:12:35.435Z,36.60
2019-06-26T14:15:04.690Z,36.50
2019-06-26T14:17:33.576Z,36.60
2019-06-26T14:20:02.476Z,36.40
2019-06-26T14:22:31.369Z,36.40
2019-06-26T14:25:00.873Z,36.40
2019-06-26T14:27:30.100Z,36.20
2019-06-26T14:29:59.174Z,36.00
2019-06-26T14:32:28.047Z,35.90
2019-06-26T14:34:57.078Z,35.50
2019-06-26T14:37:26.111Z,35.80
2019-06-26T14:39:55.181Z,35.90
2019-06-26T14:42:24.208Z,35.60
2019-06-26T14:44:53.129Z,35.80
2019-06-26T14:47:22.440Z,35.80
2019-06-26T14:49:51.279Z,36.20
2019-06-26T14:52:20.113Z,36.20
2019-06-26T14:54:49.261Z,36.20
2019-06-26T14:57:18.650Z,36.20
2019-06-26T14:59:47.878Z,35.60
2019-06-26T15:02:16.924Z,35.30
2019-06-26T15:04:46.249Z,35.40
2019-06-26T15:07:15.441Z,35.50
2019-06-26T15:09:44.470Z,35.40
2019-06-26T15:12:13.423Z,35.70
2019-06-26T15:14:42.262Z,35.50
2019-06-26T15:17:11.100Z,35.00
2019-06-26T15:19:40.036Z,35.00
2019-06-26T15:22:09.065Z,35.00
2019-06-26T15:24:38.442Z,35.20
2019-06-26T15:27:07.660Z,35.20
2019-06-26T15:29:36.614Z,35.30
2019-06-26T15:32:05.518Z,35.40
2019-06-26T15:34:34.601Z,35.20
2019-06-26T15:37:03.596Z,35.00
2019-06-26T15:39:32.580Z,35.10
2019-06-26T15:42:02.007Z,35.20
2019-06-26T15:44:30.909Z,34.70
2019-06-26T15:47:00.982Z,34.80
2019-06-26T15:49:34.807Z,34.80
2019-06-26T15:52:14.423Z,34.60
2019-06-26T15:54:34.254Z,34.60
2019-06-26T15:57:03.209Z,34.50
2019-06-26T15:59:32.151Z,34.30
2019-06-26T16:02:01.519Z,34.10
2019-06-26T16:04:30.452Z,34.30
2019-06-26T16:06:59.431Z,34.30
2019-06-26T16:09:28.429Z,34.50
2019-06-26T16:11:58.973Z,34.40
2019-06-26T16:14:27.888Z,34.40
2019-06-26T16:16:59.368Z,34.40
2019-06-26T16:19:28.473Z,34.70
2019-06-26T16:21:57.393Z,34.90
2019-06-26T16:24:29.915Z,34.50
2019-06-26T16:26:57.518Z,34.30
2019-06-26T16:29:26.752Z,34.40
2019-06-26T16:31:55.980Z,34.40
2019-06-26T16:34:24.980Z,34.30
2019-06-26T16:36:54.075Z,34.20
2019-06-26T16:39:23.779Z,34.30
2019-06-26T16:41:52.893Z,34.20
2019-06-26T16:44:22.134Z,34.00
2019-06-26T16:46:51.086Z,34.10
2019-06-26T16:49:20.395Z,34.20
2019-06-26T16:51:49.255Z,34.10
2019-06-26T16:54:18.189Z,34.00
2019-06-26T16:56:47.155Z,34.10
2019-06-26T16:59:16.098Z,34.30
2019-06-26T17:01:44.956Z,34.20
2019-06-26T17:04:13.894Z,33.90
2019-06-26T17:06:42.690Z,33.80
2019-06-26T17:09:11.605Z,33.80
2019-06-26T17:11:40.513Z,33.60
2019-06-26T17:14:09.420Z,33.70
2019-06-26T17:16:38.345Z,33.30
2019-06-26T17:19:07.373Z,33.20
2019-06-26T17:21:36.467Z,33.20
2019-06-26T17:24:05.641Z,33.20
2019-06-26T17:26:35.050Z,33.10
2019-06-26T17:29:04.206Z,33.00
2019-06-26T17:31:33.205Z,33.00
2019-06-26T17:34:02.292Z,33.10
2019-06-26T17:36:31.692Z,32.80
2019-06-26T17:39:00.656Z,32.90
2019-06-26T17:41:29.553Z,32.90
2019-06-26T17:43:58.442Z,32.90
2019-06-26T17:46:27.413Z,32.90
2019-06-26T17:48:56.542Z,32.80
2019-06-26T17:51:25.770Z,32.50
2019-06-26T17:53:54.772Z,32.20
2019-06-26T17:56:24.090Z,32.10
2019-06-26T17:58:53.058Z,32.10
2019-06-26T18:01:21.914Z,32.30
2019-06-26T18:03:51.421Z,32.20
2019-06-26T18:06:20.524Z,32.20
2019-06-26T18:08:49.562Z,32.10
2019-06-26T18:11:18.635Z,32.00
2019-06-26T18:13:47.526Z,31.80
2019-06-26T18:16:16.468Z,31.50
2019-06-26T18:18:45.493Z,31.20
2019-06-26T18:21:14.438Z,31.10
2019-06-26T18:23:43.713Z,31.10
2019-06-26T18:26:13.988Z,31.30
2019-06-26T18:28:43.391Z,31.40
2019-06-26T18:31:12.301Z,31.40
2019-06-26T18:33:44.173Z,31.20
2019-06-26T18:36:11.705Z,31.30
2019-06-26T18:38:40.709Z,31.40
2019-06-26T18:41:09.771Z,31.40
2019-06-26T18:43:38.733Z,31.20
2019-06-26T18:46:07.608Z,31.20
2019-06-26T18:48:36.685Z,31.10
2019-06-26T18:51:05.535Z,30.90
2019-06-26T18:53:36.013Z,30.90
2019-06-26T18:56:05.407Z,30.60
2019-06-26T18:58:35.048Z,30.60
2019-06-26T19:01:03.950Z,30.40
2019-06-26T19:03:32.891Z,30.30
2019-06-26T19:06:02.091Z,30.30
2019-06-26T19:08:31.476Z,30.10
2019-06-26T19:11:00.669Z,30.10
2019-06-26T19:13:29.623Z,29.80
2019-06-26T19:15:58.510Z,29.90
2019-06-26T19:18:27.370Z,30.10
2019-06-26T19:20:56.453Z,29.90
2019-06-26T19:23:25.318Z,29.70
2019-06-26T19:25:54.510Z,29.70
2019-06-26T19:28:23.449Z,29.80
2019-06-26T19:30:52.292Z,29.90
2019-06-26T19:33:21.158Z,29.80
2019-06-26T19:35:50.073Z,29.70
2019-06-26T19:38:19.083Z,29.50
2019-06-26T19:40:48.108Z,29.50
2019-06-26T19:43:17.064Z,29.50
2019-06-26T19:45:46.019Z,29.60
2019-06-26T19:48:15.010Z,29.60
2019-06-26T19:50:44.002Z,29.60
2019-06-26T19:53:13.322Z,29.50
2019-06-26T19:55:42.170Z,29.40
2019-06-26T19:58:11.453Z,29.30
2019-06-26T20:00:40.729Z,29.10
2019-06-26T20:03:09.798Z,29.10
2019-06-26T20:05:38.728Z,28.80
2019-06-26T20:08:07.743Z,28.80
2019-06-26T20:10:36.607Z,28.90
2019-06-26T20:13:05.529Z,29.00
2019-06-26T20:15:34.464Z,29.00
2019-06-26T20:18:04.395Z,28.90
2019-06-26T20:20:33.618Z,28.80
2019-06-26T20:23:02.666Z,28.60
2019-06-26T20:25:31.577Z,28.50
2019-06-26T20:28:00.585Z,28.40
2019-06-26T20:30:33.873Z,28.50
2019-06-26T20:33:02.814Z,28.40
2019-06-26T20:35:31.990Z,28.30
2019-06-26T20:38:01.064Z,28.20
2019-06-26T20:40:30.232Z,28.30
2019-06-26T20:42:59.490Z,28.20
2019-06-26T20:45:28.397Z,28.20
2019-06-26T20:47:57.348Z,28.00
2019-06-26T20:50:26.170Z,27.80
2019-06-26T20:52:55.087Z,27.70
2019-06-26T20:55:24.188Z,27.60
2019-06-26T20:57:53.070Z,27.60
2019-06-26T21:00:22.682Z,27.80
2019-06-26T21:02:54.097Z,27.90
2019-06-26T21:05:22.441Z,27.90
2019-06-26T21:07:51.478Z,27.80
2019-06-26T21:10:20.555Z,27.70
2019-06-26T21:12:49.512Z,27.60
2019-06-26T21:15:18.551Z,27.40
2019-06-26T21:17:47.543Z,27.50
2019-06-26T21:20:16.630Z,27.50
2019-06-26T21:22:45.510Z,27.50
2019-06-26T21:25:19.097Z,27.40
2019-06-26T21:27:46.296Z,27.50
2019-06-26T21:30:15.571Z,27.30
2019-06-26T21:32:44.552Z,27.20
2019-06-26T21:35:13.635Z,27.00
2019-06-26T21:37:42.545Z,27.10
2019-06-26T21:40:12.039Z,27.20
2019-06-26T21:42:40.978Z,27.10
2019-06-26T21:45:10.431Z,26.90
2019-06-26T21:47:39.330Z,27.00
2019-06-26T21:50:08.208Z,26.90
2019-06-26T21:52:37.226Z,26.70
2019-06-26T21:55:06.212Z,26.70
2019-06-26T21:57:35.541Z,26.70
2019-06-26T22:00:05.463Z,26.90
2019-06-26T22:02:34.735Z,26.90
2019-06-26T22:05:04.678Z,26.90
2019-06-26T22:07:33.601Z,26.90
2019-06-26T22:10:02.635Z,26.90
2019-06-26T22:12:31.742Z,26.70
2019-06-26T22:15:00.720Z,26.40
2019-06-26T22:17:29.646Z,26.50
2019-06-26T22:19:58.510Z,26.50
2019-06-26T22:22:27.542Z,26.60
2019-06-26T22:24:56.629Z,26.30
2019-06-26T22:27:25.589Z,26.20
2019-06-26T22:29:54.869Z,26.30
2019-06-26T22:32:23.846Z,26.10
2019-06-26T22:34:52.755Z,26.10
2019-06-26T22:37:21.547Z,26.20
2019-06-26T22:39:50.491Z,26.30
2019-06-26T22:42:19.433Z,26.30
2019-06-26T22:44:48.374Z,26.30
2019-06-26T22:47:17.163Z,26.20
2019-06-26T22:49:46.045Z,26.00
2019-06-26T22:52:14.954Z,26.00
2019-06-26T22:54:44.027Z,25.70
2019-06-26T22:57:13.018Z,25.80
2019-06-26T22:59:41.951Z,25.80
2019-06-26T23:02:10.945Z,25.60
2019-06-26T23:04:39.846Z,25.40
2019-06-26T23:07:08.796Z,25.40
2019-06-26T23:09:37.772Z,25.40
2019-06-26T23:12:06.702Z,25.60
2019-06-26T23:14:35.761Z,25.60
2019-06-26T23:17:04.784Z,25.50
2019-06-26T23:19:33.816Z,25.60
2019-06-26T23:22:02.762Z,25.50
2019-06-26T23:24:31.754Z,25.40
2019-06-26T23:27:00.719Z,25.40
2019-06-26T23:29:29.738Z,25.40
2019-06-26T23:31:58.802Z,25.30
2019-06-26T23:34:27.719Z,25.30
2019-06-26T23:36:56.737Z,25.30
2019-06-26T23:39:25.560Z,25.30
2019-06-26T23:41:54.520Z,25.40
2019-06-26T23:44:24.371Z,25.40
2019-06-26T23:46:53.433Z,25.40
2019-06-26T23:49:22.365Z,25.40
2019-06-26T23:51:51.374Z,25.00
2019-06-26T23:54:20.381Z,25.10
2019-06-26T23:56:49.309Z,25.10
2019-06-26T23:59:18.367Z,24.90
